Time;durP1;ratioP1;P1;durP2;ratioP2;P2;SDS_P1;SDS_P2;PMS_P1;PMS_P2;Temp;Humidity;BMP_temperature;BMP_pressure;BME280_temperature;BME280_humidity;BME280_pressure;Samples;Min_cycle;Max_cycle;Signal;HPM_P1;HPM_P2
2022/05/28 00:01:19;;;;;;;;;7.25;7.25;;;;;17.85;50.27;101829.88;5031263;28;45419;-85
2022/05/28 00:03:46;;;;;;;;;5.25;5.25;;;;;17.84;50.66;101832.66;5032366;28;46177;-85
2022/05/28 00:06:14;;;;;;;;;13.75;12.00;;;;;17.79;50.60;101818.63;5031598;28;45423;-86
2022/05/28 00:08:40;;;;;;;;;7.50;7.50;;;;;17.75;50.80;101819.78;5031665;28;45746;-86
2022/05/28 00:11:28;;;;;;;;;5.50;5.00;;;;;17.80;50.67;101829.31;5015517;28;45487;-85
2022/05/28 00:13:54;;;;;;;;;5.00;5.00;;;;;17.78;51.03;101825.84;5032944;28;45317;-85
2022/05/28 00:16:21;;;;;;;;;3.00;3.00;;;;;17.73;51.13;101814.53;5031541;28;46515;-86
2022/05/28 00:18:47;;;;;;;;;6.00;6.00;;;;;17.72;51.01;101814.63;5030663;28;45805;-86
2022/05/28 00:21:13;;;;;;;;;6.00;6.00;;;;;17.60;51.40;101802.84;5031130;28;45695;-85
2022/05/28 00:23:40;;;;;;;;;9.00;7.50;;;;;17.71;51.35;101818.28;5032892;28;45555;-85
2022/05/28 00:26:05;;;;;;;;;5.00;5.00;;;;;17.60;51.29;101809.09;5033132;28;45538;-85
2022/05/28 00:28:31;;;;;;;;;7.00;6.75;;;;;17.67;51.44;101820.31;5014424;28;46293;-86
2022/05/28 00:30:57;;;;;;;;;5.50;4.25;;;;;17.64;51.50;101820.53;5031494;28;45453;-85
2022/05/28 00:33:23;;;;;;;;;5.00;5.00;;;;;17.61;51.71;101812.69;5031776;28;45769;-84
2022/05/28 00:35:50;;;;;;;;;7.75;7.75;;;;;17.57;51.88;101809.31;5031504;28;45485;-85
2022/05/28 00:38:15;;;;;;;;;8.00;6.25;;;;;17.55;51.88;101805.00;5032742;28;46719;-84
2022/05/28 00:40:49;;;;;;;;;7.25;6.00;;;;;17.53;51.91;101805.09;5030672;28;45390;-84
2022/05/28 00:43:15;;;;;;;;;6.25;4.00;;;;;17.54;51.99;101814.06;5032829;28;45581;-84
2022/05/28 00:45:41;;;;;;;;;7.50;6.25;;;;;17.48;52.11;101809.09;5031118;28;45784;-84
2022/05/28 00:48:09;;;;;;;;;7.50;7.50;;;;;17.48;52.47;101807.25;5026563;28;45590;-84
2022/05/28 00:50:36;;;;;;;;;4.50;4.50;;;;;17.49;52.30;101808.13;5029883;28;45529;-84
2022/05/28 00:53:03;;;;;;;;;5.50;4.00;;;;;17.44;52.23;101795.84;5034068;28;45567;-84
2022/05/28 00:55:31;;;;;;;;;6.25;5.25;;;;;17.46;52.35;101801.09;5034447;28;45301;-84
2022/05/28 00:57:59;;;;;;;;;5.00;5.00;;;;;17.37;52.50;101794.53;5034149;28;46700;-84
2022/05/28 01:00:24;;;;;;;;;6.75;6.75;;;;;17.37;52.55;101796.38;5034196;28;45420;-84
2022/05/28 01:03:08;;;;;;;;;5.25;3.75;;;;;17.38;52.53;101798.94;5034716;28;45277;-84
2022/05/28 01:05:36;;;;;;;;;5.50;5.50;;;;;17.42;52.68;101807.69;5017269;28;45420;-84
2022/05/28 01:08:32;;;;;;;;;7.25;6.00;;;;;17.36;52.83;101798.19;5034178;28;46579;-84
2022/05/28 01:11:13;;;;;;;;;5.50;5.50;;;;;17.36;52.94;101811.63;5017785;28;45484;-85
2022/05/28 01:13:51;;;;;;;;;6.00;6.00;;;;;17.28;53.16;101792.47;5023038;28;45384;-84
2022/05/28 01:16:31;;;;;;;;;5.50;4.75;;;;;17.25;52.98;101787.28;5023076;28;45522;-85
2022/05/28 01:19:11;;;;;;;;;9.00;4.75;;;;;17.27;53.33;101812.28;5022881;28;45723;-85
2022/05/28 01:21:49;;;;;;;;;5.50;5.00;;;;;17.23;53.30;101802.69;5022082;28;45475;-85
2022/05/28 01:24:27;;;;;;;;;4.75;4.75;;;;;17.24;53.45;101799.00;5019393;28;45378;-85
2022/05/28 01:27:04;;;;;;;;;3.50;3.50;;;;;17.23;53.40;101794.59;5018235;28;45376;-84
2022/05/28 01:29:34;;;;;;;;;6.50;5.00;;;;;17.18;53.72;101789.53;5019117;28;45433;-85
2022/05/28 01:32:01;;;;;;;;;5.50;5.50;;;;;17.17;53.67;101781.56;5022550;28;45538;-85
2022/05/28 01:34:29;;;;;;;;;7.25;4.50;;;;;17.12;53.81;101783.69;5022923;28;45482;-84
2022/05/28 01:36:56;;;;;;;;;6.00;5.00;;;;;17.04;53.85;101758.16;5022517;28;45437;-84
2022/05/28 01:39:23;;;;;;;;;8.75;6.00;;;;;17.12;53.96;101806.06;5020058;28;46283;-84
2022/05/28 01:41:50;;;;;;;;;7.00;6.75;;;;;17.11;54.14;101795.44;5017974;28;45384;-84
2022/05/28 01:44:17;;;;;;;;;8.50;8.50;;;;;17.07;54.02;101788.53;5003716;28;45341;-85
2022/05/28 01:46:45;;;;;;;;;5.75;5.75;;;;;17.09;54.21;101798.22;5022673;28;45445;-85
2022/05/28 01:49:15;;;;;;;;;4.50;4.50;;;;;17.06;54.23;101781.44;5022379;28;46715;-85
2022/05/28 01:51:47;;;;;;;;;8.25;7.50;;;;;16.98;54.55;101780.09;5022452;28;45503;-85
2022/05/28 01:54:16;;;;;;;;;8.25;8.25;;;;;17.04;54.25;101785.06;5000922;28;45293;-85
2022/05/28 01:56:44;;;;;;;;;6.25;6.25;;;;;17.02;54.24;101784.31;5018061;28;45369;-85
2022/05/28 01:59:14;;;;;;;;;6.25;6.25;;;;;16.92;54.57;101772.44;5021735;28;46448;-85
2022/05/28 02:01:41;;;;;;;;;11.75;11.75;;;;;16.92;54.67;101767.06;5022258;28;45545;-86
2022/05/28 02:04:07;;;;;;;;;10.25;7.50;;;;;16.95;54.52;101769.53;5025431;28;45507;-85
2022/05/28 02:06:35;;;;;;;;;6.25;4.50;;;;;16.93;54.69;101768.78;5024579;28;45302;-85
2022/05/28 02:09:05;;;;;;;;;8.75;7.25;;;;;16.93;54.77;101779.56;5020938;28;46456;-85
2022/05/28 02:11:57;;;;;;;;;8.25;6.50;;;;;16.86;55.07;101763.91;5022524;28;45282;-85
2022/05/28 02:14:36;;;;;;;;;7.25;7.25;;;;;16.90;54.85;101766.28;5022155;28;45414;-85
2022/05/28 02:17:17;;;;;;;;;7.00;6.25;;;;;16.88;54.99;101765.53;5025648;28;45303;-84
2022/05/28 02:20:09;;;;;;;;;6.50;5.75;;;;;16.88;55.17;101772.75;5025724;28;45439;-85
2022/05/28 02:22:57;;;;;;;;;7.50;7.50;;;;;16.82;54.93;101765.94;5025375;28;45536;-84
2022/05/28 02:25:31;;;;;;;;;6.00;5.75;;;;;16.79;55.15;101763.47;5025470;28;45471;-84
2022/05/28 02:27:59;;;;;;;;;10.75;7.50;;;;;16.72;55.20;101751.34;5025447;28;45338;-84
2022/05/28 02:30:25;;;;;;;;;8.75;8.75;;;;;16.77;55.31;101758.16;5023181;28;47874;-84
2022/05/28 02:32:59;;;;;;;;;11.25;8.25;;;;;16.77;55.26;101752.78;5020846;28;45454;-84
2022/05/28 02:35:25;;;;;;;;;9.50;7.25;;;;;16.76;55.17;101751.06;5021979;28;45827;-84
2022/05/28 02:37:50;;;;;;;;;8.50;7.75;;;;;16.71;54.91;101763.06;5025259;28;45516;-84
2022/05/28 02:40:15;;;;;;;;;7.75;7.75;;;;;16.59;55.43;101727.94;5025017;28;46297;-83
2022/05/28 02:42:41;;;;;;;;;5.75;5.75;;;;;16.66;55.38;101741.84;5025123;28;45818;-82
2022/05/28 02:45:07;;;;;;;;;7.50;6.50;;;;;16.66;55.30;101735.63;5020516;28;45394;-84
2022/05/28 02:47:32;;;;;;;;;8.75;8.00;;;;;16.64;55.37;101741.09;5022115;28;45466;-85
2022/05/28 02:49:58;;;;;;;;;11.00;8.75;;;;;16.64;55.57;101746.47;5024967;28;46418;-82
2022/05/28 02:52:23;;;;;;;;;8.50;7.25;;;;;16.63;55.65;101746.59;5025173;28;45463;-82
2022/05/28 02:54:48;;;;;;;;;11.50;9.50;;;;;16.58;55.68;101745.03;5025391;28;45493;-82
2022/05/28 02:57:14;;;;;;;;;10.25;9.75;;;;;16.59;55.89;101736.00;5021402;28;47620;-82
2022/05/28 02:59:39;;;;;;;;;10.75;9.75;;;;;16.55;55.69;101744.41;5036799;28;46399;-82
2022/05/28 03:02:04;;;;;;;;;19.00;15.50;;;;;16.56;55.84;101743.41;5024854;28;47283;-82
2022/05/28 03:04:29;;;;;;;;;32.75;29.00;;;;;16.53;55.82;101738.25;5024898;28;45550;-81
2022/05/28 03:06:55;;;;;;;;;37.75;30.75;;;;;16.45;56.04;101736.06;5007057;28;45440;-81
2022/05/28 03:09:20;;;;;;;;;33.25;30.00;;;;;16.46;55.98;101742.31;5003811;28;48451;-81
2022/05/28 03:11:46;;;;;;;;;35.75;32.25;;;;;16.43;56.27;101743.38;5020191;28;45428;-82
2022/05/28 03:14:11;;;;;;;;;28.50;27.25;;;;;16.26;56.10;101722.97;5023961;28;45587;-82
2022/05/28 03:16:37;;;;;;;;;32.25;27.25;;;;;16.38;56.24;101743.66;5024481;28;45479;-82
2022/05/28 03:19:02;;;;;;;;;25.75;23.00;;;;;16.35;56.37;101734.91;5024540;28;46226;-81
2022/05/28 03:21:28;;;;;;;;;24.00;22.75;;;;;16.32;56.29;101737.81;5022668;28;45310;-82
2022/05/28 03:23:53;;;;;;;;;20.25;18.50;;;;;16.24;56.43;101732.94;5020147;28;48340;-82
2022/05/28 03:26:24;;;;;;;;;22.00;20.00;;;;;16.25;56.70;101737.34;5021211;28;45310;-82
2022/05/28 03:28:51;;;;;;;;;18.25;17.75;;;;;16.20;56.70;101726.03;5024404;28;46665;-82
2022/05/28 03:31:17;;;;;;;;;18.25;15.00;;;;;16.22;56.49;101732.16;5006644;28;45521;-82
2022/05/28 03:33:43;;;;;;;;;17.00;12.75;;;;;16.21;56.62;101734.94;5024293;28;45499;-82
2022/05/28 03:36:09;;;;;;;;;16.75;14.00;;;;;16.16;56.66;101736.13;5020207;28;45421;-81
2022/05/28 03:38:35;;;;;;;;;14.00;13.25;;;;;16.13;57.05;101728.22;5020663;28;45542;-82
2022/05/28 03:41:02;;;;;;;;;14.50;13.00;;;;;16.13;56.95;101732.75;5024451;28;45665;-82
2022/05/28 03:43:28;;;;;;;;;17.25;16.50;;;;;16.12;56.95;101739.94;5024334;28;45432;-82
2022/05/28 03:45:54;;;;;;;;;17.50;13.75;;;;;16.09;56.97;101740.16;5024220;28;45373;-81
2022/05/28 03:48:20;;;;;;;;;14.00;14.00;;;;;16.06;57.16;101745.69;5021154;28;46394;-81
2022/05/28 03:50:46;;;;;;;;;15.50;14.25;;;;;16.03;57.18;101734.31;5019529;28;45324;-81
2022/05/28 03:53:11;;;;;;;;;11.50;11.00;;;;;16.05;57.30;101743.97;5022446;28;45462;-82
2022/05/28 03:55:39;;;;;;;;;14.25;10.50;;;;;16.01;57.19;101742.44;5024099;28;45510;-81
2022/05/28 03:58:05;;;;;;;;;12.75;11.00;;;;;16.02;57.00;101754.03;5023763;28;45480;-82
2022/05/28 04:00:30;;;;;;;;;12.75;11.00;;;;;16.01;57.07;101755.88;5022285;28;45266;-82
2022/05/28 04:02:56;;;;;;;;;14.25;12.00;;;;;15.86;57.62;101740.72;5019380;28;45354;-83
2022/05/28 04:05:23;;;;;;;;;12.50;12.25;;;;;15.92;57.61;101757.34;5022212;28;45321;-82
2022/05/28 04:07:48;;;;;;;;;12.50;12.50;;;;;15.93;57.78;101760.88;5023833;28;45536;-82
2022/05/28 04:10:14;;;;;;;;;11.75;10.75;;;;;15.89;57.61;101762.88;5024616;28;45396;-82
2022/05/28 04:12:39;;;;;;;;;13.25;12.25;;;;;15.89;57.74;101762.88;5025149;28;45476;-83
2022/05/28 04:15:05;;;;;;;;;15.00;12.75;;;;;15.88;57.84;101765.66;5019051;28;45593;-82
2022/05/28 04:17:31;;;;;;;;;12.00;12.00;;;;;15.87;57.90;101758.56;5026564;28;45635;-84
2022/05/28 04:19:56;;;;;;;;;17.75;14.50;;;;;15.79;57.95;101767.09;5024402;28;45507;-83
2022/05/28 04:22:22;;;;;;;;;15.50;12.25;;;;;15.84;57.92;101769.50;5023760;28;45576;-83
2022/05/28 04:24:47;;;;;;;;;10.75;10.00;;;;;15.81;57.91;101767.00;5030229;28;45553;-84
2022/05/28 04:27:12;;;;;;;;;10.75;10.75;;;;;15.84;58.01;101769.50;5034687;28;45546;-84
2022/05/28 04:29:38;;;;;;;;;10.25;9.25;;;;;15.79;58.25;101767.09;5019662;28;45467;-84
2022/05/28 04:32:04;;;;;;;;;15.00;12.75;;;;;15.81;58.23;101767.88;5023493;28;45455;-84
2022/05/28 04:34:29;;;;;;;;;10.75;10.00;;;;;15.79;58.27;101771.59;5027837;28;45567;-83
2022/05/28 04:36:54;;;;;;;;;8.50;8.50;;;;;15.80;58.43;101767.94;5031561;28;48217;-83
2022/05/28 04:39:20;;;;;;;;;10.00;10.00;;;;;15.80;58.35;101771.50;5034747;28;45564;-84
2022/05/28 04:41:45;;;;;;;;;11.25;10.00;;;;;15.86;58.34;101772.94;5019182;28;45291;-85
2022/05/28 04:44:11;;;;;;;;;12.00;10.50;;;;;15.90;58.13;101778.03;5023035;28;45282;-84
2022/05/28 04:46:37;;;;;;;;;9.50;9.00;;;;;15.92;58.13;101784.19;5023359;28;46405;-84
2022/05/28 04:49:04;;;;;;;;;14.25;13.00;;;;;15.90;58.11;101782.56;5023254;28;45255;-84
2022/05/28 04:51:29;;;;;;;;;11.00;9.00;;;;;15.93;58.41;101782.34;5026507;28;45512;-85
2022/05/28 04:53:55;;;;;;;;;9.00;9.00;;;;;15.88;58.32;101779.09;5032507;28;45449;-83
2022/05/28 04:56:20;;;;;;;;;9.25;6.50;;;;;15.93;58.42;101793.97;5028049;28;46376;-84
2022/05/28 04:58:46;;;;;;;;;11.50;9.25;;;;;15.90;58.21;101775.34;5015278;28;45613;-83
2022/05/28 05:01:13;;;;;;;;;7.50;7.50;;;;;15.93;58.35;101783.22;5012377;28;45481;-84
2022/05/28 05:03:39;;;;;;;;;12.25;12.25;;;;;15.90;58.27;101779.88;5005054;28;45616;-84
2022/05/28 05:06:04;;;;;;;;;8.00;8.00;;;;;15.91;58.26;101778.91;5018181;28;46125;-84
2022/05/28 05:08:30;;;;;;;;;6.75;5.75;;;;;15.88;58.09;101774.59;5019973;28;45252;-84
2022/05/28 05:10:56;;;;;;;;;11.00;9.75;;;;;15.93;58.14;101780.53;5023296;28;45238;-84
2022/05/28 05:13:21;;;;;;;;;9.25;8.50;;;;;15.95;57.86;101780.44;5025880;28;45583;-85
2022/05/28 05:15:47;;;;;;;;;7.50;7.50;;;;;15.93;57.74;101785.91;5030224;28;48160;-84
2022/05/28 05:18:12;;;;;;;;;8.50;7.75;;;;;15.89;57.80;101778.97;5034304;28;45428;-84
2022/05/28 05:20:37;;;;;;;;;9.00;8.25;;;;;15.93;58.11;101796.63;5019243;28;45321;-84
2022/05/28 05:23:03;;;;;;;;;10.25;7.75;;;;;15.95;58.00;101788.50;5022910;28;45366;-84
2022/05/28 05:25:29;;;;;;;;;9.25;9.25;;;;;15.95;57.98;101791.19;5004882;28;48086;-83
2022/05/28 05:27:54;;;;;;;;;9.00;9.00;;;;;15.91;58.02;101777.06;5022783;28;45638;-83
2022/05/28 05:30:20;;;;;;;;;11.75;8.75;;;;;15.96;58.09;101793.75;5019884;28;45477;-83
2022/05/28 05:32:45;;;;;;;;;8.50;7.00;;;;;15.94;58.37;101784.94;5032942;28;45447;-83
2022/05/28 05:35:11;;;;;;;;;9.50;9.00;;;;;15.98;58.07;101782.94;5004361;28;48425;-83
2022/05/28 05:37:37;;;;;;;;;11.00;11.00;;;;;15.96;57.96;101774.97;5023588;28;45435;-83
2022/05/28 05:40:03;;;;;;;;;7.00;6.25;;;;;16.02;58.25;101781.78;5026315;28;45506;-82
2022/05/28 05:42:29;;;;;;;;;6.25;6.25;;;;;16.01;58.05;101793.47;5024548;28;45483;-82
2022/05/28 05:44:55;;;;;;;;;9.00;8.50;;;;;16.02;58.11;101780.91;5021353;28;46472;-83
2022/05/28 05:47:20;;;;;;;;;10.25;8.00;;;;;16.02;57.98;101780.91;5024616;28;45376;-83
2022/05/28 05:49:46;;;;;;;;;11.25;9.00;;;;;15.98;57.88;101770.34;5026064;28;45549;-83
2022/05/28 05:52:11;;;;;;;;;11.00;9.00;;;;;16.01;58.15;101779.19;5025899;28;46376;-83
2022/05/28 05:54:37;;;;;;;;;11.50;9.75;;;;;16.02;57.88;101768.34;5025348;28;45261;-84
2022/05/28 05:57:02;;;;;;;;;10.25;8.50;;;;;16.05;57.92;101789.66;5021273;28;45252;-83
2022/05/28 05:59:28;;;;;;;;;7.50;7.50;;;;;16.02;58.08;101779.09;5023472;28;45398;-84
2022/05/28 06:01:53;;;;;;;;;7.25;7.25;;;;;16.04;57.78;101779.84;5032889;28;45495;-83
2022/05/28 06:04:19;;;;;;;;;8.00;8.00;;;;;16.08;57.96;101789.44;5032081;28;45510;-84
2022/05/28 06:06:44;;;;;;;;;12.50;8.50;;;;;16.09;57.87;101788.50;5025675;28;45444;-84
2022/05/28 06:09:09;;;;;;;;;10.75;9.00;;;;;16.04;58.07;101777.16;5021642;28;45498;-83
2022/05/28 06:11:35;;;;;;;;;12.00;10.00;;;;;16.12;57.98;101785.63;5031926;28;45575;-83
2022/05/28 06:14:00;;;;;;;;;11.00;9.00;;;;;16.16;57.93;101784.47;5025593;28;45344;-83
2022/05/28 06:16:26;;;;;;;;;12.00;10.00;;;;;16.18;58.57;101800.47;5027873;28;45382;-83
2022/05/28 06:18:51;;;;;;;;;8.50;8.50;;;;;16.16;58.09;101787.16;5035634;28;45473;-83
2022/05/28 06:21:17;;;;;;;;;12.75;9.75;;;;;16.21;58.07;101791.34;5022199;28;45475;-83
2022/05/28 06:23:43;;;;;;;;;14.75;11.75;;;;;16.25;58.04;101784.84;5021239;28;46256;-84
2022/05/28 06:26:09;;;;;;;;;9.50;8.00;;;;;16.27;57.95;101789.16;5036814;28;45573;-84
2022/05/28 06:28:35;;;;;;;;;9.50;9.50;;;;;16.29;57.47;101806.06;5029501;28;45455;-84
2022/05/28 06:31:07;;;;;;;;;8.50;6.75;;;;;16.27;57.68;101786.47;5022468;28;45598;-84
2022/05/28 06:33:36;;;;;;;;;9.00;9.00;;;;;16.28;58.02;101782.81;5024285;28;46720;-86
2022/05/28 06:36:04;;;;;;;;;10.00;10.00;;;;;16.35;58.13;101789.53;5036009;28;45453;-87
2022/05/28 06:38:30;;;;;;;;;9.50;9.25;;;;;16.39;57.74;101798.28;5004254;28;45547;-86
2022/05/28 06:40:56;;;;;;;;;12.25;10.25;;;;;16.45;57.56;101802.38;5029962;28;45500;-85
2022/05/28 06:43:22;;;;;;;;;9.75;8.75;;;;;16.46;58.05;101788.84;5031917;28;46236;-85
2022/05/28 06:45:48;;;;;;;;;8.75;8.75;;;;;16.49;58.03;101790.47;5031282;28;45509;-85
2022/05/28 06:48:13;;;;;;;;;9.00;9.00;;;;;16.51;58.46;101786.72;5027396;28;45496;-82
2022/05/28 06:53:23;;;;;;;;;13.25;10.50;;;;;16.59;58.33;101786.22;5033321;28;45790;-82
2022/05/28 06:55:48;;;;;;;;;10.75;9.50;;;;;16.59;58.16;101786.22;5027174;28;45578;-83
2022/05/28 06:58:14;;;;;;;;;6.50;5.50;;;;;16.54;58.12;101777.59;5024162;28;45291;-82
2022/05/28 07:00:40;;;;;;;;;13.50;10.50;;;;;16.58;58.39;101773.75;5021083;28;45946;-83
2022/05/28 07:03:11;;;;;;;;;10.50;10.50;;;;;16.59;58.65;101776.31;5033084;28;45267;-83
2022/05/28 07:05:36;;;;;;;;;14.25;11.50;;;;;16.65;58.59;101783.16;5030762;28;45440;-84
2022/05/28 07:08:01;;;;;;;;;11.50;9.25;;;;;16.70;58.59;101780.16;5033464;28;45424;-84
2022/05/28 07:10:27;;;;;;;;;13.00;9.50;;;;;16.71;58.51;101779.19;5029764;28;45500;-82
2022/05/28 07:12:53;;;;;;;;;12.25;12.00;;;;;16.74;58.23;101777.19;5019449;28;46183;-84
2022/05/28 07:15:18;;;;;;;;;15.00;12.50;;;;;16.80;58.06;101775.94;5021209;28;45437;-84
2022/05/28 07:17:44;;;;;;;;;11.25;11.25;;;;;16.80;58.16;101776.78;5020190;28;45450;-83
2022/05/28 07:20:10;;;;;;;;;10.00;10.00;;;;;16.82;57.96;101776.69;5006303;28;45627;-84
2022/05/28 07:22:36;;;;;;;;;11.75;11.50;;;;;16.88;57.89;101778.97;5023680;28;46796;-84
2022/05/28 07:25:02;;;;;;;;;9.50;9.50;;;;;16.91;57.82;101775.22;5024713;28;45377;-84
2022/05/28 07:27:28;;;;;;;;;13.50;10.75;;;;;16.93;58.19;101773.28;5021366;28;45377;-81
2022/05/28 07:29:54;;;;;;;;;12.25;12.25;;;;;16.94;57.75;101777.72;5030798;28;45369;-84
2022/05/28 07:32:20;;;;;;;;;14.25;11.00;;;;;16.95;57.85;101774.91;5020739;28;45440;-83
2022/05/28 07:34:45;;;;;;;;;14.00;10.25;;;;;16.97;57.66;101775.69;5031929;28;45478;-85
2022/05/28 07:37:10;;;;;;;;;11.25;11.00;;;;;16.94;57.99;101759.75;5031692;28;45550;-85
2022/05/28 07:39:36;;;;;;;;;14.50;13.75;;;;;16.99;57.80;101762.13;5023720;28;45332;-84
2022/05/28 07:42:04;;;;;;;;;14.00;11.25;;;;;17.01;57.98;101754.81;5019126;28;48128;-84
2022/05/28 07:44:30;;;;;;;;;10.50;10.50;;;;;17.00;57.68;101753.97;5026184;28;45478;-85
2022/05/28 07:46:55;;;;;;;;;9.75;9.75;;;;;17.09;57.20;101762.38;5025091;28;47835;-84
2022/05/28 07:49:21;;;;;;;;;12.50;9.50;;;;;17.04;57.35;101757.31;5031175;28;52182;-85
2022/05/28 07:51:46;;;;;;;;;11.75;11.00;;;;;17.08;57.55;101758.84;5032580;28;46450;-85
2022/05/28 07:54:11;;;;;;;;;10.50;10.00;;;;;17.14;57.41;101771.00;5033157;28;45491;-85
2022/05/28 07:56:38;;;;;;;;;11.75;9.75;;;;;17.14;57.44;101760.25;5022159;28;45458;-88
2022/05/28 07:59:04;;;;;;;;;12.00;10.25;;;;;17.15;57.36;101757.47;5031212;28;45597;-88
2022/05/28 08:01:31;;;;;;;;;9.00;8.00;;;;;17.26;57.21;101759.41;5011859;28;47390;-88
2022/05/28 08:04:02;;;;;;;;;11.75;7.25;;;;;17.24;57.31;101747.88;5033360;28;46028;-88
2022/05/28 08:06:30;;;;;;;;;12.00;12.00;;;;;17.35;57.02;101756.09;5019197;28;45491;-87
2022/05/28 08:08:56;;;;;;;;;11.75;10.00;;;;;17.36;57.07;101749.72;5032021;28;45397;-87
2022/05/28 08:11:22;;;;;;;;;10.50;10.50;;;;;17.40;56.57;101750.41;5029044;28;45436;-92
2022/05/28 08:13:48;;;;;;;;;13.00;10.00;;;;;17.41;56.35;101750.31;5023431;28;45690;-86
2022/05/28 08:16:14;;;;;;;;;8.50;7.25;;;;;17.47;56.50;101749.00;5023827;28;45373;-87
2022/05/28 08:18:40;;;;;;;;;10.00;9.75;;;;;17.49;56.17;101749.75;5034923;28;45446;-81
2022/05/28 08:23:50;;;;;;;;;16.75;14.00;;;;;17.58;55.52;101751.81;5032660;28;45229;-77
2022/05/28 08:26:19;;;;;;;;;11.00;10.00;;;;;17.63;55.49;101751.47;5022823;28;45306;-79
2022/05/28 08:28:46;;;;;;;;;10.50;10.00;;;;;17.66;55.53;101749.44;5026012;28;46331;-79
2022/05/28 08:31:11;;;;;;;;;10.75;9.50;;;;;17.71;55.17;101751.81;5023470;28;46223;-76
2022/05/28 08:33:37;;;;;;;;;8.25;8.00;;;;;17.77;55.08;101753.22;5022615;28;45542;-76
2022/05/28 08:36:03;;;;;;;;;11.50;10.25;;;;;17.80;54.71;101744.94;5025592;28;45515;-77
2022/05/28 08:38:29;;;;;;;;;8.75;8.50;;;;;17.82;54.22;101746.59;5023531;28;45547;-76
2022/05/28 08:41:19;;;;;;;;;20.00;17.50;;;;;17.83;54.30;101745.59;5030456;28;46029;-76
2022/05/28 08:43:56;;;;;;;;;13.25;10.25;;;;;17.86;54.26;101755.28;5029715;28;45620;-77
2022/05/28 08:46:24;;;;;;;;;10.25;10.00;;;;;17.90;54.29;101746.03;5029386;28;45706;-77
2022/05/28 08:48:53;;;;;;;;;7.50;6.75;;;;;17.96;54.47;101750.97;5030161;28;45698;-77
2022/05/28 08:51:48;;;;;;;;;10.50;8.50;;;;;18.03;53.58;101749.56;5025396;28;45531;-77
2022/05/28 08:54:57;;;;;;;;;9.25;9.00;;;;;18.09;53.77;101738.34;5013132;28;45362;-77
2022/05/28 08:58:00;;;;;;;;;9.50;8.50;;;;;18.15;53.93;101741.56;4931330;28;45470;-76
2022/05/28 09:00:38;;;;;;;;;16.00;9.75;;;;;18.21;53.35;101730.38;4911417;28;45710;-77
2022/05/28 09:03:17;;;;;;;;;12.25;9.00;;;;;18.25;53.23;101727.31;4930402;28;46641;-77
2022/05/28 09:06:30;;;;;;;;;11.75;10.50;;;;;18.29;53.07;101727.97;4930408;28;45474;-77
2022/05/28 09:08:56;;;;;;;;;10.00;9.00;;;;;18.34;53.05;101731.19;4875203;29;45512;-77
2022/05/28 09:11:32;;;;;;;;;5.75;5.75;;;;;18.40;52.86;101727.16;4875330;29;45922;-77
2022/05/28 09:14:08;;;;;;;;;11.50;9.75;;;;;18.43;52.59;101724.25;4877621;29;47170;-77
2022/05/28 09:16:38;;;;;;;;;9.75;9.75;;;;;18.47;52.53;101725.75;4875601;29;45901;-77
2022/05/28 09:19:08;;;;;;;;;7.50;7.50;;;;;18.48;52.72;101714.84;4875496;29;45657;-78
2022/05/28 09:21:33;;;;;;;;;6.50;6.50;;;;;18.51;52.77;101716.47;4875901;29;45595;-77
2022/05/28 09:24:09;;;;;;;;;10.00;8.00;;;;;18.57;52.25;101712.44;4876476;29;46035;-77
2022/05/28 09:26:59;;;;;;;;;4.50;4.25;;;;;18.59;51.89;101708.69;4879990;29;45670;-77
2022/05/28 09:29:30;;;;;;;;;6.25;5.25;;;;;18.66;50.99;101711.75;4879729;29;45578;-77
2022/05/28 09:32:25;;;;;;;;;9.00;7.00;;;;;18.70;50.53;101711.41;4889434;28;45614;-77
2022/05/28 09:35:24;;;;;;;;;5.00;3.25;;;;;18.73;49.41;101711.16;4952262;28;47288;-77
2022/05/28 09:38:05;;;;;;;;;5.75;5.25;;;;;18.77;49.66;101702.91;4952934;28;45416;-77
2022/05/28 09:40:38;;;;;;;;;13.50;9.75;;;;;18.79;49.90;101707.22;5016314;28;45448;-77
2022/05/28 09:43:28;;;;;;;;;3.00;3.00;;;;;18.85;49.35;101700.47;5015805;28;45329;-78
2022/05/28 09:46:15;;;;;;;;;6.50;5.50;;;;;18.91;49.67;101700.03;5016498;28;47388;-78
2022/05/28 09:48:40;;;;;;;;;5.25;5.25;;;;;18.92;49.48;101691.78;5024527;28;45390;-78
2022/05/28 09:51:21;;;;;;;;;4.75;4.00;;;;;19.01;50.01;101684.84;5007351;28;45593;-78
2022/05/28 09:56:37;;;;;;;;;4.50;4.50;;;;;19.16;49.22;101674.69;5021891;28;46673;-78
2022/05/28 09:59:19;;;;;;;;;6.25;6.25;;;;;19.26;48.80;101678.38;5024442;28;45751;-78
2022/05/28 10:02:01;;;;;;;;;8.50;6.00;;;;;19.31;48.36;101672.63;5026021;28;45618;-78
2022/05/28 10:04:30;;;;;;;;;8.25;6.00;;;;;19.37;48.18;101669.47;5023638;28;45919;-77
2022/05/28 10:07:01;;;;;;;;;6.25;5.25;;;;;19.41;48.14;101664.66;5021935;28;45868;-78
2022/05/28 10:09:31;;;;;;;;;8.50;7.25;;;;;19.46;47.71;101663.34;5021400;28;45723;-78
2022/05/28 10:11:58;;;;;;;;;10.25;7.25;;;;;19.48;47.86;101663.22;5027173;28;45637;-78
2022/05/28 10:14:28;;;;;;;;;5.75;5.75;;;;;19.50;47.75;101655.84;5024392;28;45539;-78
2022/05/28 10:16:56;;;;;;;;;6.50;6.50;;;;;19.55;47.12;101662.63;5027578;28;47243;-78
2022/05/28 10:19:40;;;;;;;;;10.75;10.00;;;;;19.57;47.62;101659.78;5025773;28;45435;-78
2022/05/28 10:22:16;;;;;;;;;5.00;5.00;;;;;19.61;47.54;101658.56;5021121;28;45601;-78
2022/05/28 10:24:55;;;;;;;;;6.25;6.25;;;;;19.63;47.54;101662.00;5023921;28;45552;-78
2022/05/28 10:27:27;;;;;;;;;8.25;4.25;;;;;19.63;47.37;101653.91;5021274;28;46318;-79
2022/05/28 10:29:57;;;;;;;;;6.25;6.00;;;;;19.72;47.34;101655.91;5023792;28;45665;-78
2022/05/28 10:32:31;;;;;;;;;5.50;5.00;;;;;19.78;47.21;101654.53;5005962;28;45540;-78
2022/05/28 10:35:10;;;;;;;;;5.00;5.00;;;;;19.87;46.89;101652.97;5027314;28;45692;-83
2022/05/28 10:37:36;;;;;;;;;4.75;4.75;;;;;19.94;46.35;101654.16;5030541;28;46146;-78
2022/05/28 10:40:10;;;;;;;;;6.25;5.00;;;;;20.05;45.76;101646.03;5026933;28;45653;-79
2022/05/28 10:42:37;;;;;;;;;6.25;4.50;;;;;20.12;45.87;101641.84;5033459;28;45588;-79
2022/05/28 10:45:04;;;;;;;;;5.00;5.00;;;;;20.18;46.16;101632.38;5010131;28;45487;-81
2022/05/28 10:47:42;;;;;;;;;5.25;5.25;;;;;20.29;45.50;101637.75;5031186;28;45605;-80
2022/05/28 10:50:29;;;;;;;;;8.00;4.00;;;;;20.40;45.41;101624.19;5035976;28;45482;-78
2022/05/28 10:53:42;;;;;;;;;7.50;5.00;;;;;20.51;44.81;101622.44;5032542;28;45597;-83
2022/05/28 10:56:25;;;;;;;;;4.00;4.00;;;;;20.63;43.60;101629.53;4978382;28;45489;-84
2022/05/28 10:59:25;;;;;;;;;3.00;3.00;;;;;20.70;43.39;101622.63;4982711;28;48293;-88
2022/05/28 11:02:14;;;;;;;;;4.50;3.75;;;;;20.85;43.39;101628.56;4980075;28;45585;-80
2022/05/28 11:04:49;;;;;;;;;4.00;3.00;;;;;20.97;42.69;101618.53;4978290;28;45530;-81
2022/05/28 11:07:20;;;;;;;;;7.50;3.25;;;;;21.06;42.75;101612.34;4977480;28;45814;-81
2022/05/28 11:10:03;;;;;;;;;4.00;3.75;;;;;21.18;42.20;101603.13;4977833;28;45576;-81
2022/05/28 11:12:35;;;;;;;;;5.00;4.00;;;;;21.23;40.93;101609.00;4976502;28;45666;-82
2022/05/28 11:15:06;;;;;;;;;4.00;4.00;;;;;21.40;41.60;101604.00;4974678;28;45654;-82
2022/05/28 11:17:59;;;;;;;;;3.00;3.00;;;;;21.55;41.36;101596.34;4974892;28;45546;-81
2022/05/28 11:20:42;;;;;;;;;3.75;3.75;;;;;21.72;41.20;101597.56;4972030;28;45552;-81
2022/05/28 11:23:49;;;;;;;;;2.25;2.25;;;;;21.81;40.33;101600.28;4972734;28;45461;-81
2022/05/28 11:26:28;;;;;;;;;3.75;3.75;;;;;21.85;38.83;101593.59;4974132;28;45509;-81
2022/05/28 11:29:26;;;;;;;;;2.25;2.25;;;;;21.87;38.98;101597.03;4972851;28;47548;-81
2022/05/28 11:32:08;;;;;;;;;5.25;5.25;;;;;21.87;39.33;101594.31;4990388;28;46308;-81
2022/05/28 11:34:58;;;;;;;;;3.25;3.25;;;;;21.94;39.12;101585.66;5031003;28;45411;-81
2022/05/28 11:37:33;;;;;;;;;5.75;4.75;;;;;21.94;38.29;101586.50;5031719;28;45630;-86
2022/05/28 11:40:10;;;;;;;;;4.75;3.75;;;;;21.92;39.20;101583.06;5026994;28;45597;-82
2022/05/28 11:42:58;;;;;;;;;3.50;3.00;;;;;21.98;38.20;101573.50;5026254;28;45375;-81